Time;durP1;ratioP1;P1;durP2;ratioP2;P2;SDS_P1;SDS_P2;PMS_P1;PMS_P2;Temp;Humidity;BMP_temperature;BMP_pressure;BME280_temperature;BME280_humidity;BME280_pressure;Samples;Min_cycle;Max_cycle;Signal;HPM_P1;HPM_P2
2021/09/07 00:01:05;;;;;;;11.13;9.87;;;19.20;67.40;;;;;;5116466;28;20852;-76
2021/09/07 00:03:31;;;;;;;8.90;7.93;;;19.20;67.50;;;;;;5116315;28;20506;-76
2021/09/07 00:05:59;;;;;;;8.80;7.90;;;19.20;67.50;;;;;;5115076;28;20937;-76
2021/09/07 00:08:25;;;;;;;10.10;9.00;;;19.20;67.30;;;;;;5116283;28;20462;-76
2021/09/07 00:10:52;;;;;;;10.53;9.03;;;19.20;67.50;;;;;;5115955;28;20821;-76
2021/09/07 00:13:19;;;;;;;10.20;8.90;;;19.20;67.70;;;;;;5115979;28;20454;-76
2021/09/07 00:15:47;;;;;;;9.77;8.77;;;19.20;67.70;;;;;;5116169;28;20439;-76
2021/09/07 00:18:14;;;;;;;9.53;8.63;;;19.10;67.80;;;;;;5116014;28;20506;-76
2021/09/07 00:20:41;;;;;;;10.50;8.90;;;19.10;67.90;;;;;;5116066;28;20443;-76
2021/09/07 00:23:07;;;;;;;10.37;9.37;;;19.20;68.10;;;;;;5115938;28;20879;-76
2021/09/07 00:25:34;;;;;;;11.53;8.60;;;19.20;68.10;;;;;;5115967;28;20456;-76
2021/09/07 00:28:01;;;;;;;9.83;8.83;;;19.10;68.10;;;;;;5115527;28;20463;-76
2021/09/07 00:30:27;;;;;;;11.87;8.23;;;19.10;68.20;;;;;;5116135;28;20447;-76
2021/09/07 00:32:55;;;;;;;10.63;8.53;;;19.10;68.30;;;;;;5115839;28;20802;-76
2021/09/07 00:35:24;;;;;;;11.10;9.10;;;19.10;68.60;;;;;;5115837;28;20427;-76
2021/09/07 00:37:51;;;;;;;9.50;8.60;;;19.10;68.90;;;;;;5115683;28;20467;-76
2021/09/07 00:40:18;;;;;;;10.60;9.60;;;19.10;69.30;;;;;;5115469;28;20456;-76
2021/09/07 00:42:45;;;;;;;11.40;10.17;;;19.00;69.20;;;;;;5115570;28;20483;-76
2021/09/07 00:45:12;;;;;;;11.17;10.07;;;19.10;69.40;;;;;;5115711;27;20443;-76
2021/09/07 00:47:39;;;;;;;10.80;9.37;;;19.00;69.40;;;;;;5115739;28;20851;-76
2021/09/07 00:50:08;;;;;;;11.73;10.53;;;19.00;69.30;;;;;;5115477;28;20458;-75
2021/09/07 00:52:37;;;;;;;10.37;9.37;;;19.00;69.30;;;;;;5115474;28;20443;-76
2021/09/07 00:55:05;;;;;;;10.93;9.80;;;18.90;69.20;;;;;;5115480;28;20434;-76
2021/09/07 00:57:33;;;;;;;11.30;10.10;;;18.90;69.10;;;;;;5115376;28;20469;-76
2021/09/07 01:00:03;;;;;;;12.17;9.33;;;18.90;69.20;;;;;;5115332;28;20446;-76
2021/09/07 01:02:29;;;;;;;13.70;10.10;;;18.90;69.30;;;;;;5114832;28;20478;-76
2021/09/07 01:04:56;;;;;;;11.13;10.00;;;18.90;69.40;;;;;;5115253;28;20810;-76
2021/09/07 01:07:24;;;;;;;10.30;9.03;;;18.90;69.30;;;;;;5114797;28;20458;-76
2021/09/07 01:09:51;;;;;;;11.17;9.33;;;18.80;69.10;;;;;;5115130;28;20443;-76
2021/09/07 01:12:18;;;;;;;11.10;10.10;;;18.80;69.30;;;;;;5115012;28;20804;-76
2021/09/07 01:14:45;;;;;;;11.63;10.47;;;18.80;69.50;;;;;;5114669;27;20486;-76
2021/09/07 01:17:13;;;;;;;12.07;9.20;;;18.70;69.30;;;;;;5114785;28;20463;-76
2021/09/07 01:19:41;;;;;;;10.70;9.70;;;18.70;69.50;;;;;;5114584;28;20795;-76
2021/09/07 01:22:08;;;;;;;11.87;10.57;;;18.70;69.60;;;;;;5114473;28;20453;-76
2021/09/07 01:24:36;;;;;;;10.40;9.40;;;18.70;69.60;;;;;;5114492;28;20956;-76
2021/09/07 01:27:05;;;;;;;10.73;9.70;;;18.70;69.60;;;;;;5114681;28;20466;-76
2021/09/07 01:29:34;;;;;;;11.37;10.27;;;18.70;69.60;;;;;;5114814;28;20525;-76
2021/09/07 01:32:01;;;;;;;9.80;8.90;;;18.70;69.70;;;;;;5114921;28;20504;-76
2021/09/07 01:34:28;;;;;;;11.80;10.20;;;18.70;69.90;;;;;;5114698;28;20419;-76
2021/09/07 01:36:55;;;;;;;12.70;10.43;;;18.70;70.10;;;;;;5114519;28;20567;-76
2021/09/07 01:39:22;;;;;;;12.10;9.97;;;18.60;70.10;;;;;;5114534;28;20454;-76
2021/09/07 01:41:51;;;;;;;10.27;9.23;;;18.60;70.40;;;;;;5114538;28;20454;-76
2021/09/07 01:44:19;;;;;;;12.00;10.73;;;18.60;70.50;;;;;;5114072;28;21027;-76
2021/09/07 01:46:46;;;;;;;9.73;8.83;;;18.50;70.20;;;;;;5114335;28;20462;-76
2021/09/07 01:49:14;;;;;;;12.70;10.50;;;18.50;70.40;;;;;;5114371;28;20457;-76
2021/09/07 01:51:42;;;;;;;13.13;10.13;;;18.50;70.30;;;;;;5114315;28;20439;-76
2021/09/07 01:54:10;;;;;;;12.70;10.37;;;18.40;70.20;;;;;;5114292;28;20439;-76
2021/09/07 01:56:38;;;;;;;12.00;10.13;;;18.40;70.30;;;;;;5113872;28;20953;-75
2021/09/07 01:59:06;;;;;;;10.10;9.20;;;18.40;70.40;;;;;;5114279;28;20442;-76
2021/09/07 02:01:33;;;;;;;11.70;9.87;;;18.40;70.70;;;;;;5114192;28;20439;-76
2021/09/07 02:03:59;;;;;;;11.90;10.20;;;18.30;70.90;;;;;;5114062;28;20474;-76
2021/09/07 02:06:26;;;;;;;11.13;10.03;;;18.30;70.80;;;;;;5114105;28;20446;-76
2021/09/07 02:08:53;;;;;;;13.10;10.27;;;18.30;70.90;;;;;;5114016;28;20467;-76
2021/09/07 02:11:20;;;;;;;10.97;9.93;;;18.30;70.90;;;;;;5114044;28;20873;-76
2021/09/07 02:13:46;;;;;;;12.40;9.70;;;18.30;70.80;;;;;;5113751;28;20447;-76
2021/09/07 02:16:14;;;;;;;10.53;9.20;;;18.20;70.60;;;;;;5113945;28;20442;-76
2021/09/07 02:18:41;;;;;;;10.03;9.03;;;18.20;70.60;;;;;;5114825;28;20474;-76
2021/09/07 02:21:08;;;;;;;9.90;8.90;;;18.20;70.70;;;;;;5113575;28;20961;-76
2021/09/07 02:23:35;;;;;;;10.57;9.20;;;18.20;71.50;;;;;;5113869;28;20455;-76
2021/09/07 02:26:01;;;;;;;10.80;9.70;;;18.20;70.80;;;;;;5113878;28;20462;-76
2021/09/07 02:28:28;;;;;;;12.73;9.50;;;18.20;70.90;;;;;;5113312;28;20471;-76
2021/09/07 02:30:55;;;;;;;11.70;10.07;;;18.20;71.00;;;;;;5113850;28;20454;-76
2021/09/07 02:33:23;;;;;;;15.33;10.00;;;18.10;70.90;;;;;;5113461;28;20930;-76
2021/09/07 02:35:49;;;;;;;11.17;9.77;;;18.10;71.10;;;;;;5113946;28;20451;-76
2021/09/07 02:38:16;;;;;;;10.33;9.10;;;18.10;71.20;;;;;;5113379;28;20466;-75
2021/09/07 02:40:43;;;;;;;10.50;9.40;;;18.00;71.30;;;;;;5113725;28;20881;-76
2021/09/07 02:43:09;;;;;;;11.07;9.97;;;18.00;71.60;;;;;;5113638;28;20478;-76
2021/09/07 02:45:36;;;;;;;9.97;8.87;;;18.00;71.60;;;;;;5113374;28;20446;-76
2021/09/07 02:48:03;;;;;;;9.97;8.77;;;18.00;71.60;;;;;;5113557;28;20466;-76
2021/09/07 02:50:31;;;;;;;11.40;10.13;;;18.00;72.40;;;;;;5113673;28;20450;-76
2021/09/07 02:52:58;;;;;;;10.07;9.07;;;18.00;71.80;;;;;;5113604;28;20446;-76
2021/09/07 02:55:25;;;;;;;10.07;9.00;;;17.90;71.90;;;;;;5113594;28;20447;-76
2021/09/07 02:57:51;;;;;;;12.40;9.53;;;17.90;71.80;;;;;;5113493;28;20465;-76
2021/09/07 03:00:18;;;;;;;12.67;10.53;;;17.90;71.90;;;;;;5113526;28;20466;-76
2021/09/07 03:02:45;;;;;;;11.83;10.40;;;17.90;71.90;;;;;;5113440;28;20449;-76
2021/09/07 03:05:12;;;;;;;11.13;10.03;;;17.90;72.20;;;;;;5113228;28;20451;-75
2021/09/07 03:07:40;;;;;;;12.63;10.47;;;17.80;72.20;;;;;;5113470;28;20466;-76
2021/09/07 03:10:07;;;;;;;11.80;9.70;;;17.70;72.20;;;;;;5113453;28;20461;-76
2021/09/07 03:12:34;;;;;;;12.70;10.93;;;17.70;72.70;;;;;;5113336;28;20443;-76
2021/09/07 03:15:01;;;;;;;12.53;10.10;;;17.70;73.20;;;;;;5113416;28;20439;-76
2021/09/07 03:17:28;;;;;;;12.73;11.43;;;17.70;73.20;;;;;;5113291;28;20461;-76
2021/09/07 03:19:54;;;;;;;13.13;11.70;;;17.70;73.10;;;;;;5113316;28;20446;-76
2021/09/07 03:22:21;;;;;;;13.13;11.43;;;17.70;73.30;;;;;;5113363;28;20447;-75
2021/09/07 03:24:49;;;;;;;11.73;10.43;;;17.70;73.10;;;;;;5113265;28;20470;-76
2021/09/07 03:27:16;;;;;;;13.10;11.37;;;17.70;73.30;;;;;;5112917;28;20838;-76
2021/09/07 03:29:43;;;;;;;14.07;12.50;;;17.70;73.40;;;;;;5112976;28;20941;-76
2021/09/07 03:32:09;;;;;;;15.40;11.60;;;17.70;73.30;;;;;;5113279;28;20812;-76
2021/09/07 03:34:36;;;;;;;15.70;12.43;;;17.70;73.30;;;;;;5113250;28;20435;-77
2021/09/07 03:37:03;;;;;;;13.17;11.70;;;17.70;73.40;;;;;;5112870;28;20465;-76
2021/09/07 03:39:30;;;;;;;14.20;12.70;;;17.60;73.20;;;;;;5113314;28;20522;-76
2021/09/07 03:41:58;;;;;;;13.30;11.90;;;17.60;73.50;;;;;;5115670;28;20959;-76
2021/09/07 03:44:24;;;;;;;15.27;11.17;;;17.60;73.50;;;;;;5116732;28;20470;-76
2021/09/07 03:46:51;;;;;;;13.10;11.80;;;17.60;73.70;;;;;;5116364;28;20495;-76
2021/09/07 03:49:18;;;;;;;13.30;11.33;;;17.60;73.90;;;;;;5116730;28;20453;-76
2021/09/07 03:51:44;;;;;;;15.37;13.80;;;17.60;74.10;;;;;;5116653;28;20454;-76
2021/09/07 03:54:11;;;;;;;10.87;9.77;;;17.60;74.30;;;;;;5116591;28;20435;-76
2021/09/07 03:56:38;;;;;;;11.97;10.67;;;17.60;74.40;;;;;;5116469;28;20477;-76
2021/09/07 03:59:06;;;;;;;12.97;11.63;;;17.60;74.60;;;;;;5116593;28;20468;-76
2021/09/07 04:01:33;;;;;;;12.27;10.97;;;17.60;74.80;;;;;;5117354;28;20423;-76
2021/09/07 04:03:59;;;;;;;12.90;11.17;;;17.60;75.30;;;;;;5116326;28;20486;-76
2021/09/07 04:06:26;;;;;;;15.33;12.30;;;17.60;75.50;;;;;;5116369;28;20454;-76
2021/09/07 04:08:53;;;;;;;15.83;12.87;;;17.60;75.70;;;;;;5116303;28;20486;-76
2021/09/07 04:11:19;;;;;;;12.27;10.97;;;17.60;75.90;;;;;;5115919;28;20451;-76
2021/09/07 04:13:46;;;;;;;15.20;13.00;;;17.60;76.10;;;;;;5115916;28;20462;-76
2021/09/07 04:16:14;;;;;;;13.03;11.73;;;17.70;76.50;;;;;;5116177;28;20443;-76
2021/09/07 04:18:41;;;;;;;13.00;11.70;;;17.70;76.70;;;;;;5116159;28;20459;-75
2021/09/07 04:21:10;;;;;;;12.87;11.57;;;17.70;76.70;;;;;;5116098;28;20438;-76
2021/09/07 04:23:37;;;;;;;16.33;11.77;;;17.70;76.80;;;;;;5115676;28;21106;-76
2021/09/07 04:26:05;;;;;;;13.30;11.90;;;17.70;76.90;;;;;;5116023;28;20450;-76
2021/09/07 04:28:31;;;;;;;12.90;11.50;;;17.70;77.00;;;;;;5115894;28;20837;-76
2021/09/07 04:30:58;;;;;;;15.17;11.93;;;17.70;77.20;;;;;;5115888;28;20454;-76
2021/09/07 04:33:26;;;;;;;14.33;12.50;;;17.70;77.40;;;;;;5115530;28;20973;-75
2021/09/07 04:35:53;;;;;;;15.03;11.70;;;17.70;77.30;;;;;;5115522;28;20938;-75
2021/09/07 04:38:19;;;;;;;13.83;12.43;;;17.70;77.50;;;;;;5115368;28;20466;-76
2021/09/07 04:40:46;;;;;;;15.00;13.43;;;17.60;77.70;;;;;;5115778;28;20450;-76
2021/09/07 04:43:13;;;;;;;13.53;11.90;;;17.60;78.10;;;;;;5115604;28;20430;-75
2021/09/07 04:45:40;;;;;;;13.23;11.93;;;17.70;78.20;;;;;;5115580;28;20443;-76
2021/09/07 04:48:06;;;;;;;13.90;10.80;;;17.70;78.20;;;;;;5115643;28;20463;-76
2021/09/07 04:50:35;;;;;;;13.37;11.90;;;17.70;79.20;;;;;;5115488;28;20496;-76
2021/09/07 04:53:01;;;;;;;13.40;12.00;;;17.70;78.50;;;;;;5115008;28;20439;-76
2021/09/07 04:55:28;;;;;;;13.27;11.93;;;17.70;78.60;;;;;;5115122;28;20965;-76
2021/09/07 04:57:55;;;;;;;12.47;11.27;;;17.70;78.90;;;;;;5115312;28;20466;-75
2021/09/07 05:00:21;;;;;;;13.70;12.30;;;17.70;78.90;;;;;;5115353;28;20450;-75
2021/09/07 05:02:48;;;;;;;14.77;12.33;;;17.80;79.00;;;;;;5115362;28;20449;-75
2021/09/07 05:05:15;;;;;;;14.30;12.77;;;17.80;79.90;;;;;;5115161;28;20535;-75
2021/09/07 05:07:43;;;;;;;15.27;12.60;;;17.80;79.40;;;;;;5114884;28;20462;-76
2021/09/07 05:10:11;;;;;;;14.13;12.60;;;17.80;79.60;;;;;;5115181;28;20825;-76
2021/09/07 05:12:37;;;;;;;13.10;11.80;;;17.80;79.70;;;;;;5115002;28;20450;-76
2021/09/07 05:15:05;;;;;;;16.60;13.10;;;17.80;80.00;;;;;;5114858;28;20428;-76
2021/09/07 05:17:32;;;;;;;14.03;12.20;;;17.80;80.10;;;;;;5114996;28;20462;-76
2021/09/07 05:19:59;;;;;;;12.40;10.67;;;17.80;80.10;;;;;;5114960;28;20439;-75
2021/09/07 05:22:26;;;;;;;14.17;12.53;;;17.80;80.20;;;;;;5114610;28;21084;-75
2021/09/07 05:24:54;;;;;;;13.40;12.03;;;17.80;80.30;;;;;;5114728;28;20535;-75
2021/09/07 05:27:20;;;;;;;15.17;12.77;;;17.80;80.50;;;;;;5114780;28;20471;-75
2021/09/07 05:29:47;;;;;;;19.50;12.87;;;17.80;80.40;;;;;;5114770;28;20449;-75
2021/09/07 05:32:14;;;;;;;17.20;12.83;;;17.80;80.40;;;;;;5114690;28;20450;-75
2021/09/07 05:34:41;;;;;;;14.73;12.37;;;17.80;80.30;;;;;;5114662;28;20439;-75
2021/09/07 05:37:07;;;;;;;14.50;11.83;;;17.90;80.80;;;;;;5114557;28;20458;-76
2021/09/07 05:39:34;;;;;;;17.07;13.20;;;17.90;81.20;;;;;;5114624;28;20450;-75
2021/09/07 05:42:02;;;;;;;14.20;12.30;;;17.90;81.20;;;;;;5114647;28;20438;-75
2021/09/07 05:44:29;;;;;;;15.00;12.23;;;18.00;81.40;;;;;;5114684;28;20839;-75
2021/09/07 05:46:55;;;;;;;18.23;11.70;;;18.00;81.70;;;;;;5114942;28;20450;-76
2021/09/07 05:49:22;;;;;;;14.80;12.60;;;18.10;81.90;;;;;;5114566;28;20513;-76
2021/09/07 05:51:49;;;;;;;15.00;13.33;;;18.10;82.00;;;;;;5114111;28;20907;-76
2021/09/07 05:54:15;;;;;;;17.47;14.33;;;18.10;82.00;;;;;;5114329;28;20450;-76
2021/09/07 05:56:42;;;;;;;15.80;13.50;;;18.20;82.90;;;;;;5113978;28;20435;-76
2021/09/07 05:59:10;;;;;;;14.63;13.07;;;18.20;82.60;;;;;;5114415;28;20811;-76
2021/09/07 06:01:38;;;;;;;17.73;12.80;;;18.30;82.70;;;;;;5114166;28;20454;-76
2021/09/07 06:04:05;;;;;;;21.33;14.90;;;18.40;82.80;;;;;;5113073;28;20489;-77
2021/09/07 06:06:32;;;;;;;14.53;13.13;;;18.40;82.80;;;;;;5114231;28;20423;-76
2021/09/07 06:08:59;;;;;;;18.67;14.80;;;18.50;83.20;;;;;;5113755;28;20553;-76
2021/09/07 06:11:25;;;;;;;20.77;15.67;;;18.50;83.00;;;;;;5114079;28;20450;-76
2021/09/07 06:13:52;;;;;;;19.77;14.70;;;18.60;82.80;;;;;;5113786;28;20462;-76
2021/09/07 06:16:21;;;;;;;18.90;16.70;;;18.70;82.30;;;;;;5114047;28;20439;-77
2021/09/07 06:18:48;;;;;;;21.40;17.23;;;18.70;82.10;;;;;;5113983;28;20466;-76
2021/09/07 06:21:15;;;;;;;21.80;17.03;;;18.80;81.70;;;;;;5113662;28;20458;-76
2021/09/07 06:23:41;;;;;;;21.03;16.87;;;18.80;81.30;;;;;;5113851;28;20423;-76
2021/09/07 06:26:08;;;;;;;23.43;20.20;;;18.90;81.60;;;;;;5113617;28;20930;-76
2021/09/07 06:28:35;;;;;;;26.63;19.00;;;19.00;81.90;;;;;;5113848;28;20455;-76
2021/09/07 06:31:01;;;;;;;18.93;16.83;;;19.00;81.50;;;;;;5113967;28;20764;-76
2021/09/07 06:33:29;;;;;;;25.10;18.60;;;19.10;81.30;;;;;;5114088;28;20428;-77
2021/09/07 06:35:56;;;;;;;22.10;19.20;;;19.10;81.20;;;;;;5114056;28;20423;-76
2021/09/07 06:38:23;;;;;;;26.27;20.10;;;19.20;81.30;;;;;;5114074;28;20463;-77
2021/09/07 06:40:49;;;;;;;21.27;18.90;;;19.30;81.00;;;;;;5113742;28;20815;-77
2021/09/07 06:43:16;;;;;;;23.90;19.40;;;19.40;80.20;;;;;;5113902;28;20443;-77
2021/09/07 06:45:43;;;;;;;32.73;20.60;;;19.50;79.40;;;;;;5113745;28;20505;-77
2021/09/07 06:48:09;;;;;;;24.83;19.53;;;19.50;78.80;;;;;;5113701;28;20469;-76
2021/09/07 06:50:38;;;;;;;24.00;20.03;;;19.50;78.70;;;;;;5113512;28;20439;-77
2021/09/07 06:53:04;;;;;;;21.13;18.97;;;19.60;78.80;;;;;;5113704;28;20447;-77
2021/09/07 06:55:31;;;;;;;26.00;19.60;;;19.70;78.60;;;;;;5114089;28;20945;-77
2021/09/07 06:57:58;;;;;;;24.60;18.50;;;19.80;78.30;;;;;;5114130;28;20553;-77
2021/09/07 07:00:25;;;;;;;23.87;19.37;;;19.90;77.10;;;;;;5114379;28;20442;-77
2021/09/07 07:02:51;;;;;;;20.60;17.77;;;20.00;76.50;;;;;;5114141;28;20446;-77
2021/09/07 07:05:18;;;;;;;22.87;20.40;;;20.00;75.70;;;;;;5114119;28;20469;-77
2021/09/07 07:07:46;;;;;;;24.80;19.97;;;20.10;75.70;;;;;;5113928;28;20463;-77
2021/09/07 07:10:13;;;;;;;25.70;19.20;;;20.20;75.50;;;;;;5114121;28;20443;-77
2021/09/07 07:12:40;;;;;;;22.57;19.67;;;20.20;74.90;;;;;;5113753;28;20451;-77
2021/09/07 07:15:08;;;;;;;22.60;18.00;;;20.30;74.90;;;;;;5115601;27;20431;-77
2021/09/07 07:17:34;;;;;;;24.30;19.10;;;20.40;74.90;;;;;;5118152;27;20470;-77
2021/09/07 07:20:01;;;;;;;19.73;17.60;;;20.50;74.70;;;;;;5117791;28;20491;-77
2021/09/07 07:22:28;;;;;;;23.13;20.57;;;20.60;74.50;;;;;;5117763;28;20431;-77
2021/09/07 07:24:56;;;;;;;25.23;21.50;;;20.60;74.50;;;;;;5117551;28;20474;-77
2021/09/07 07:27:23;;;;;;;23.23;19.60;;;20.70;75.30;;;;;;5117347;28;21006;-77
2021/09/07 07:29:49;;;;;;;25.57;20.80;;;20.80;75.20;;;;;;5117958;28;20434;-77
2021/09/07 07:32:16;;;;;;;22.27;19.30;;;20.90;75.50;;;;;;5117894;28;20925;-77
2021/09/07 07:34:43;;;;;;;22.03;19.60;;;20.90;75.40;;;;;;5117766;28;20446;-77
2021/09/07 07:37:10;;;;;;;24.33;19.30;;;21.00;75.10;;;;;;5117598;28;20467;-77
2021/09/07 07:39:37;;;;;;;27.40;19.87;;;21.00;74.70;;;;;;5117963;28;20442;-77
2021/09/07 07:42:05;;;;;;;28.90;23.10;;;21.10;74.30;;;;;;5117927;28;20446;-77
2021/09/07 07:44:32;;;;;;;28.70;22.60;;;21.20;74.30;;;;;;5117891;28;20486;-77
2021/09/07 07:46:58;;;;;;;19.93;16.47;;;21.30;74.50;;;;;;5117928;28;20430;-77
2021/09/07 07:49:25;;;;;;;21.57;18.17;;;21.40;74.20;;;;;;5118026;28;20450;-77
2021/09/07 07:51:52;;;;;;;21.60;18.00;;;21.50;73.40;;;;;;5118098;28;20445;-77
2021/09/07 07:54:19;;;;;;;27.43;19.60;;;21.60;72.60;;;;;;5118090;28;20447;-77
2021/09/07 07:56:46;;;;;;;21.60;17.60;;;21.80;72.70;;;;;;5117550;28;20427;-77
2021/09/07 07:59:14;;;;;;;24.87;18.50;;;21.90;72.30;;;;;;5118010;28;20458;-77
2021/09/07 08:01:40;;;;;;;17.53;15.73;;;22.00;71.40;;;;;;5117989;28;20453;-77
2021/09/07 08:04:07;;;;;;;20.17;16.57;;;22.10;70.70;;;;;;5117761;28;20447;-77
2021/09/07 08:06:34;;;;;;;20.33;18.00;;;22.20;69.90;;;;;;5118136;28;20479;-77
2021/09/07 08:09:01;;;;;;;18.73;16.50;;;22.30;69.50;;;;;;5118877;28;20524;-78
2021/09/07 08:11:28;;;;;;;20.77;16.83;;;22.30;68.70;;;;;;5118927;28;20428;-78
2021/09/07 08:13:55;;;;;;;19.57;16.60;;;22.40;68.30;;;;;;5118207;28;20457;-78
2021/09/07 08:16:23;;;;;;;23.70;17.23;;;22.50;67.70;;;;;;5118398;28;20443;-78
2021/09/07 08:18:50;;;;;;;21.23;16.97;;;22.70;67.10;;;;;;5117821;28;20513;-78
2021/09/07 08:21:17;;;;;;;18.30;15.00;;;22.80;66.80;;;;;;5117821;28;20442;-78
2021/09/07 08:23:43;;;;;;;17.57;15.20;;;22.90;66.30;;;;;;5118115;28;20446;-78
2021/09/07 08:26:10;;;;;;;19.63;17.07;;;23.00;65.70;;;;;;5116843;28;20832;-77
2021/09/07 08:28:37;;;;;;;18.20;15.70;;;23.20;65.50;;;;;;5117113;28;20998;-77
2021/09/07 08:31:04;;;;;;;29.83;20.70;;;23.20;65.00;;;;;;5116674;27;20472;-77
2021/09/07 08:33:32;;;;;;;23.80;19.07;;;23.40;65.80;;;;;;5117266;28;20496;-78
2021/09/07 08:35:59;;;;;;;22.07;18.50;;;23.50;64.10;;;;;;5116767;28;20430;-77
2021/09/07 08:38:25;;;;;;;26.83;21.43;;;23.60;63.40;;;;;;5117133;28;20466;-77
2021/09/07 08:40:53;;;;;;;25.67;21.20;;;23.70;63.20;;;;;;5116625;28;20450;-77
2021/09/07 08:43:20;;;;;;;23.33;19.80;;;23.80;63.00;;;;;;5116747;28;20443;-77
2021/09/07 08:45:51;;;;;;;21.70;19.47;;;23.90;62.80;;;;;;5116382;28;20887;-77
2021/09/07 08:48:19;;;;;;;27.80;18.43;;;23.90;62.20;;;;;;5116400;28;20467;-77
2021/09/07 08:50:47;;;;;;;23.17;19.80;;;24.10;62.20;;;;;;5116816;28;20454;-77
2021/09/07 08:53:13;;;;;;;21.23;16.97;;;24.20;62.10;;;;;;5116078;28;20988;-77
2021/09/07 08:56:08;;;;;;;22.50;17.87;;;24.20;62.10;;;;;;5116061;28;20434;-77
2021/09/07 08:58:53;;;;;;;22.03;19.63;;;24.40;61.80;;;;;;5115754;28;20495;-77
2021/09/07 09:01:20;;;;;;;20.37;17.60;;;24.50;61.00;;;;;;5114929;28;20447;-77
2021/09/07 09:03:48;;;;;;;21.07;18.90;;;24.70;60.40;;;;;;5116026;28;20789;-77
2021/09/07 09:06:24;;;;;;;24.93;22.23;;;24.90;59.70;;;;;;5116886;28;20486;-78
2021/09/07 09:09:02;;;;;;;24.90;20.60;;;25.10;58.70;;;;;;5116073;28;20466;-77
2021/09/07 09:11:28;;;;;;;25.03;21.30;;;25.30;58.30;;;;;;5116205;28;20426;-78
2021/09/07 09:13:56;;;;;;;21.10;18.30;;;25.60;57.70;;;;;;5116421;28;20458;-78
2021/09/07 09:16:23;;;;;;;23.33;20.80;;;25.80;56.80;;;;;;5116630;28;20466;-77
2021/09/07 09:18:50;;;;;;;22.70;20.30;;;26.10;56.10;;;;;;5116232;28;20553;-77
2021/09/07 09:21:29;;;;;;;25.00;21.60;;;26.40;55.50;;;;;;5116198;28;20446;-78
2021/09/07 09:24:17;;;;;;;22.33;20.07;;;26.60;55.20;;;;;;5116236;28;20551;-78
2021/09/07 09:26:55;;;;;;;28.40;22.33;;;26.90;54.40;;;;;;5116640;28;20482;-78
2021/09/07 09:29:23;;;;;;;24.87;22.37;;;27.10;51.60;;;;;;5116098;28;20968;-78
2021/09/07 09:31:55;;;;;;;19.40;17.40;;;27.20;50.10;;;;;;5116440;28;20442;-78
2021/09/07 09:34:21;;;;;;;23.40;21.20;;;27.40;50.20;;;;;;5116255;28;20431;-77
2021/09/07 09:36:58;;;;;;;22.20;19.90;;;27.50;48.80;;;;;;5116367;28;20895;-78
2021/09/07 09:39:36;;;;;;;19.87;17.77;;;27.70;48.90;;;;;;5117042;28;20435;-79
2021/09/07 09:42:03;;;;;;;24.67;22.20;;;27.90;48.10;;;;;;5116062;28;20791;-79
2021/09/07 09:44:30;;;;;;;27.53;20.53;;;28.10;47.30;;;;;;5116866;28;20443;-78
2021/09/07 09:46:57;;;;;;;19.67;17.53;;;28.20;46.70;;;;;;5117094;28;20485;-78
2021/09/07 09:49:26;;;;;;;23.60;19.73;;;28.40;46.80;;;;;;5116704;28;20432;-79
2021/09/07 09:52:00;;;;;;;18.77;16.87;;;28.60;47.50;;;;;;5116712;28;20473;-78
2021/09/07 09:54:28;;;;;;;25.57;21.70;;;28.90;46.90;;;;;;5116336;28;20472;-78
2021/09/07 09:56:57;;;;;;;20.53;18.53;;;29.10;46.10;;;;;;5116037;28;20439;-78
2021/09/07 09:59:26;;;;;;;23.53;21.07;;;29.40;44.90;;;;;;5115681;28;20953;-78
2021/09/07 10:01:54;;;;;;;18.50;16.70;;;29.70;44.20;;;;;;5115686;28;20447;-78
2021/09/07 10:04:21;;;;;;;18.53;16.83;;;29.90;43.90;;;;;;5115820;28;20446;-78
2021/09/07 10:06:51;;;;;;;16.03;14.50;;;30.30;43.90;;;;;;5115402;28;20486;-78
2021/09/07 10:09:20;;;;;;;15.87;14.37;;;30.60;43.70;;;;;;5115949;28;20545;-78
2021/09/07 10:11:55;;;;;;;18.13;15.77;;;31.00;42.50;;;;;;5115581;28;20461;-78
2021/09/07 10:14:28;;;;;;;17.90;15.53;;;31.30;41.50;;;;;;5115410;28;20462;-78
2021/09/07 10:17:29;;;;;;;22.20;17.97;;;31.70;40.40;;;;;;5116008;28;20466;-78
2021/09/07 10:20:03;;;;;;;20.10;18.17;;;32.10;39.90;;;;;;5116035;28;20442;-78
2021/09/07 10:25:49;;;;;;;22.83;20.73;;;32.90;36.40;;;;;;5115710;28;20445;-78
2021/09/07 10:28:33;;;;;;;18.03;16.30;;;33.20;33.70;;;;;;5115871;28;20469;-78
2021/09/07 10:31:02;;;;;;;15.33;13.97;;;33.40;32.50;;;;;;5116060;28;20438;-78
2021/09/07 10:33:31;;;;;;;15.90;14.33;;;33.70;33.60;;;;;;5116315;28;20790;-78
2021/09/07 10:36:12;;;;;;;20.27;18.53;;;34.10;33.50;;;;;;5116215;28;20485;-77
2021/09/07 10:38:41;;;;;;;17.37;15.80;;;34.60;31.10;;;;;;5114493;28;20981;-77
2021/09/07 10:41:10;;;;;;;16.13;14.70;;;35.10;30.70;;;;;;5114629;28;20929;-78
2021/09/07 10:44:04;;;;;;;21.90;19.80;;;35.60;30.30;;;;;;5115648;28;20446;-78
2021/09/07 10:46:46;;;;;;;15.67;14.27;;;36.30;28.90;;;;;;5114918;28;20470;-78
2021/09/07 10:49:21;;;;;;;16.97;15.53;;;36.90;27.70;;;;;;5115781;28;20967;-78
2021/09/07 10:52:10;;;;;;;18.23;16.83;;;37.50;23.20;;;;;;5120063;28;20181;-78
2021/09/07 10:54:42;;;;;;;15.47;14.17;;;37.90;21.70;;;;;;5120341;28;20227;-78
2021/09/07 10:57:10;;;;;;;15.43;14.13;;;38.30;22.70;;;;;;5120127;28;20585;-79
2021/09/07 10:59:50;;;;;;;14.82;13.38;;;38.80;23.50;;;;;;5120520;28;20204;-79
2021/09/07 11:02:35;;;;;;;18.05;16.35;;;39.40;24.10;;;;;;5119876;28;20184;-79
2021/09/07 11:05:04;;;;;;;16.92;15.50;;;40.00;23.00;;;;;;5119840;28;20204;-78
2021/09/07 11:07:40;;;;;;;18.75;16.95;;;40.00;21.50;;;;;;5119544;28;20224;-78
2021/09/07 11:10:07;;;;;;;13.77;12.65;;;39.70;21.30;;;;;;5119808;28;20587;-78
2021/09/07 11:12:35;;;;;;;13.25;12.25;;;39.40;21.70;;;;;;5119920;28;20278;-78
2021/09/07 11:15:05;;;;;;;13.75;12.75;;;39.20;23.20;;;;;;5119647;28;20211;-78
2021/09/07 11:17:32;;;;;;;14.32;13.07;;;39.10;24.30;;;;;;5120962;28;20220;-79
2021/09/07 11:20:02;;;;;;;14.23;12.77;;;39.30;24.30;;;;;;5120007;28;20200;-79
2021/09/07 11:22:29;;;;;;;13.88;12.55;;;39.80;24.00;;;;;;5120161;28;20207;-79
2021/09/07 11:25:07;;;;;;;11.90;10.93;;;40.30;23.70;;;;;;5120293;28;20200;-78
2021/09/07 11:27:54;;;;;;;11.32;10.43;;;40.90;23.30;;;;;;5119544;28;20224;-79
2021/09/07 11:30:27;;;;;;;11.57;10.40;;;41.40;22.50;;;;;;5120140;28;20208;-79
2021/09/07 11:33:02;;;;;;;12.40;11.10;;;41.80;21.90;;;;;;5119369;28;20185;-78
2021/09/07 11:35:29;;;;;;;11.68;10.77;;;42.20;20.10;;;;;;5119800;28;20180;-79
2021/09/07 11:37:57;;;;;;;12.15;11.25;;;42.50;20.20;;;;;;5119359;28;20220;-79
2021/09/07 11:40:24;;;;;;;12.85;11.65;;;42.80;19.80;;;;;;5119161;28;20207;-79
2021/09/07 11:42:52;;;;;;;12.15;11.18;;;43.10;19.60;;;;;;5119296;28;20200;-79
2021/09/07 11:45:25;;;;;;;11.45;10.32;;;43.40;19.70;;;;;;5119503;28;20204;-79
2021/09/07 11:47:52;;;;;;;11.77;10.77;;;43.70;20.00;;;;;;5118471;28;20231;-79
2021/09/07 11:50:20;;;;;;;10.73;9.85;;;44.00;19.80;;;;;;5118964;28;20204;-79
2021/09/07 11:52:49;;;;;;;10.93;10.02;;;44.30;19.30;;;;;;5118288;28;20196;-78
2021/09/07 11:55:58;;;;;;;10.38;9.57;;;44.60;19.50;;;;;;5118754;28;20188;-78
2021/09/07 11:58:39;;;;;;;11.02;10.13;;;45.00;19.40;;;;;;5118317;28;20307;-79
2021/09/07 12:01:09;;;;;;;10.52;9.68;;;45.40;19.10;;;;;;5117771;28;20237;-78
2021/09/07 12:03:41;;;;;;;10.30;9.45;;;45.60;18.90;;;;;;5118683;28;20185;-77
2021/09/07 12:06:11;;;;;;;11.15;10.05;;;45.60;18.80;;;;;;5118659;28;20553;-79
2021/09/07 12:08:41;;;;;;;9.63;8.82;;;45.70;18.80;;;;;;5118354;28;20319;-79
2021/09/07 12:11:09;;;;;;;10.20;9.35;;;46.00;18.70;;;;;;5118797;28;20189;-79
2021/09/07 12:13:38;;;;;;;10.23;9.52;;;46.20;18.30;;;;;;5118362;28;20690;-79
2021/09/07 12:16:05;;;;;;;12.23;11.30;;;46.50;18.20;;;;;;5118644;28;20197;-79
2021/09/07 12:18:38;;;;;;;11.95;10.77;;;46.70;17.30;;;;;;5118249;28;20228;-79
2021/09/07 12:21:14;;;;;;;11.15;10.35;;;46.70;17.00;;;;;;5118365;28;20189;-78
2021/09/07 12:23:42;;;;;;;9.07;8.38;;;46.80;17.50;;;;;;5118151;28;20207;-78
2021/09/07 12:26:09;;;;;;;10.10;9.40;;;46.80;17.70;;;;;;5117595;28;20221;-78
2021/09/07 12:28:39;;;;;;;9.43;8.73;;;46.80;17.30;;;;;;5117969;28;20312;-79
2021/09/07 12:31:20;;;;;;;8.20;7.70;;;46.90;17.80;;;;;;5117787;28;20201;-79
2021/09/07 12:33:52;;;;;;;7.57;7.07;;;47.30;17.90;;;;;;5118559;28;20191;-79
2021/09/07 12:36:21;;;;;;;8.50;7.60;;;47.60;17.10;;;;;;5117901;27;20177;-79
2021/09/07 12:38:49;;;;;;;7.80;7.13;;;47.80;16.50;;;;;;5117817;28;20232;-78
2021/09/07 12:41:17;;;;;;;8.07;7.47;;;48.10;16.70;;;;;;5118007;28;20694;-79